sensor_id;sensor_type;location;lat;lon;timestamp;temperature;humidity
40638;DHT22;26336;44.696;10.622;2022-07-23T00:00:19;29.90;74.20
40638;DHT22;26336;44.696;10.622;2022-07-23T00:03:23;29.80;74.30
40638;DHT22;26336;44.696;10.622;2022-07-23T00:06:27;29.90;74.60
40638;DHT22;26336;44.696;10.622;2022-07-23T00:09:32;29.90;74.40
40638;DHT22;26336;44.696;10.622;2022-07-23T00:12:36;29.90;74.30
40638;DHT22;26336;44.696;10.622;2022-07-23T00:15:40;29.90;74.50
40638;DHT22;26336;44.696;10.622;2022-07-23T00:18:44;29.90;74.60
40638;DHT22;26336;44.696;10.622;2022-07-23T00:21:48;29.80;74.90
40638;DHT22;26336;44.696;10.622;2022-07-23T00:24:52;29.80;75.10
40638;DHT22;26336;44.696;10.622;2022-07-23T00:28:00;29.80;75.30
40638;DHT22;26336;44.696;10.622;2022-07-23T00:31:04;29.70;75.20
40638;DHT22;26336;44.696;10.622;2022-07-23T00:34:08;29.60;75.30
40638;DHT22;26336;44.696;10.622;2022-07-23T00:37:12;29.60;75.50
40638;DHT22;26336;44.696;10.622;2022-07-23T00:40:16;29.60;76.10
40638;DHT22;26336;44.696;10.622;2022-07-23T00:43:39;29.60;75.20
40638;DHT22;26336;44.696;10.622;2022-07-23T00:46:51;29.60;74.90
40638;DHT22;26336;44.696;10.622;2022-07-23T00:49:57;29.60;74.70
40638;DHT22;26336;44.696;10.622;2022-07-23T00:53:02;29.50;73.80
40638;DHT22;26336;44.696;10.622;2022-07-23T00:56:08;29.50;73.60
40638;DHT22;26336;44.696;10.622;2022-07-23T00:59:13;29.40;74.00
40638;DHT22;26336;44.696;10.622;2022-07-23T01:02:18;29.20;74.80
40638;DHT22;26336;44.696;10.622;2022-07-23T01:05:22;29.20;75.00
40638;DHT22;26336;44.696;10.622;2022-07-23T01:08:26;29.20;74.90
40638;DHT22;26336;44.696;10.622;2022-07-23T01:11:34;29.20;75.10
40638;DHT22;26336;44.696;10.622;2022-07-23T01:14:43;29.10;75.70
40638;DHT22;26336;44.696;10.622;2022-07-23T01:17:47;29.10;75.80
40638;DHT22;26336;44.696;10.622;2022-07-23T01:20:51;29.10;75.70
40638;DHT22;26336;44.696;10.622;2022-07-23T01:23:55;29.00;75.60
40638;DHT22;26336;44.696;10.622;2022-07-23T01:27:00;29.00;75.70
40638;DHT22;26336;44.696;10.622;2022-07-23T01:30:04;28.90;75.80
40638;DHT22;26336;44.696;10.622;2022-07-23T01:33:09;28.90;76.00
40638;DHT22;26336;44.696;10.622;2022-07-23T01:36:13;29.00;76.20
40638;DHT22;26336;44.696;10.622;2022-07-23T01:39:17;29.00;75.80
40638;DHT22;26336;44.696;10.622;2022-07-23T01:42:24;29.00;75.10
40638;DHT22;26336;44.696;10.622;2022-07-23T01:45:30;29.00;74.90
40638;DHT22;26336;44.696;10.622;2022-07-23T01:48:34;28.90;74.60
40638;DHT22;26336;44.696;10.622;2022-07-23T01:51:59;28.90;74.60
40638;DHT22;26336;44.696;10.622;2022-07-23T01:55:17;28.80;74.70
40638;DHT22;26336;44.696;10.622;2022-07-23T01:58:22;28.80;74.70
40638;DHT22;26336;44.696;10.622;2022-07-23T02:01:26;28.80;74.60
40638;DHT22;26336;44.696;10.622;2022-07-23T02:04:32;28.80;74.10
40638;DHT22;26336;44.696;10.622;2022-07-23T02:07:40;28.70;73.80
40638;DHT22;26336;44.696;10.622;2022-07-23T02:10:45;28.20;74.00
40638;DHT22;26336;44.696;10.622;2022-07-23T02:13:51;28.10;74.60
40638;DHT22;26336;44.696;10.622;2022-07-23T02:16:55;28.10;74.80
40638;DHT22;26336;44.696;10.622;2022-07-23T02:20:02;28.20;74.80
40638;DHT22;26336;44.696;10.622;2022-07-23T02:23:06;28.20;74.90
40638;DHT22;26336;44.696;10.622;2022-07-23T02:26:11;28.30;74.80
40638;DHT22;26336;44.696;10.622;2022-07-23T02:29:15;28.30;73.50
40638;DHT22;26336;44.696;10.622;2022-07-23T02:32:19;28.00;73.50
40638;DHT22;26336;44.696;10.622;2022-07-23T02:35:25;28.00;73.50
40638;DHT22;26336;44.696;10.622;2022-07-23T02:38:29;27.80;73.80
40638;DHT22;26336;44.696;10.622;2022-07-23T02:41:35;27.90;73.90
40638;DHT22;26336;44.696;10.622;2022-07-23T02:44:38;28.00;73.30
40638;DHT22;26336;44.696;10.622;2022-07-23T02:47:42;28.00;72.60
40638;DHT22;26336;44.696;10.622;2022-07-23T02:50:47;28.00;72.40
40638;DHT22;26336;44.696;10.622;2022-07-23T02:53:54;27.90;72.90
40638;DHT22;26336;44.696;10.622;2022-07-23T02:56:58;27.90;72.90
40638;DHT22;26336;44.696;10.622;2022-07-23T03:00:05;28.00;73.10
40638;DHT22;26336;44.696;10.622;2022-07-23T03:03:10;28.00;73.20
40638;DHT22;26336;44.696;10.622;2022-07-23T03:06:14;28.00;73.10
40638;DHT22;26336;44.696;10.622;2022-07-23T03:09:19;27.80;73.40
40638;DHT22;26336;44.696;10.622;2022-07-23T03:12:24;27.90;73.00
40638;DHT22;26336;44.696;10.622;2022-07-23T03:15:29;27.90;73.00
40638;DHT22;26336;44.696;10.622;2022-07-23T03:18:34;27.90;72.80
40638;DHT22;26336;44.696;10.622;2022-07-23T03:21:38;27.80;72.50
40638;DHT22;26336;44.696;10.622;2022-07-23T03:24:44;27.70;72.50
40638;DHT22;26336;44.696;10.622;2022-07-23T03:27:59;27.60;72.00
40638;DHT22;26336;44.696;10.622;2022-07-23T03:31:05;27.60;72.20
40638;DHT22;26336;44.696;10.622;2022-07-23T03:34:10;27.60;71.10
40638;DHT22;26336;44.696;10.622;2022-07-23T03:37:14;27.70;71.00
40638;DHT22;26336;44.696;10.622;2022-07-23T03:40:18;27.70;70.60
40638;DHT22;26336;44.696;10.622;2022-07-23T03:43:22;27.60;69.90
40638;DHT22;26336;44.696;10.622;2022-07-23T03:46:32;27.50;69.70
40638;DHT22;26336;44.696;10.622;2022-07-23T03:49:36;27.50;69.80
40638;DHT22;26336;44.696;10.622;2022-07-23T03:52:40;27.50;70.50
40638;DHT22;26336;44.696;10.622;2022-07-23T03:55:45;27.60;70.10
40638;DHT22;26336;44.696;10.622;2022-07-23T03:58:49;27.60;70.10
40638;DHT22;26336;44.696;10.622;2022-07-23T04:01:53;27.50;69.60
40638;DHT22;26336;44.696;10.622;2022-07-23T04:04:58;27.50;69.00
40638;DHT22;26336;44.696;10.622;2022-07-23T04:08:03;27.40;68.60
40638;DHT22;26336;44.696;10.622;2022-07-23T04:11:07;27.30;68.20
40638;DHT22;26336;44.696;10.622;2022-07-23T04:14:11;27.20;67.30
40638;DHT22;26336;44.696;10.622;2022-07-23T04:17:15;27.20;68.30
40638;DHT22;26336;44.696;10.622;2022-07-23T04:20:21;27.20;68.70
40638;DHT22;26336;44.696;10.622;2022-07-23T04:23:32;27.00;67.20
40638;DHT22;26336;44.696;10.622;2022-07-23T04:26:36;27.00;67.00
40638;DHT22;26336;44.696;10.622;2022-07-23T04:29:43;27.00;65.90
40638;DHT22;26336;44.696;10.622;2022-07-23T04:32:47;27.00;65.80
40638;DHT22;26336;44.696;10.622;2022-07-23T04:35:57;27.00;64.30
40638;DHT22;26336;44.696;10.622;2022-07-23T04:39:01;26.90;64.60
40638;DHT22;26336;44.696;10.622;2022-07-23T04:42:05;26.90;64.00
40638;DHT22;26336;44.696;10.622;2022-07-23T04:45:09;27.00;63.90
40638;DHT22;26336;44.696;10.622;2022-07-23T04:48:13;27.00;64.00
40638;DHT22;26336;44.696;10.622;2022-07-23T04:51:17;27.00;64.60
40638;DHT22;26336;44.696;10.622;2022-07-23T04:54:21;27.10;64.40
40638;DHT22;26336;44.696;10.622;2022-07-23T04:57:25;27.10;64.10
40638;DHT22;26336;44.696;10.622;2022-07-23T05:00:29;27.10;64.30
40638;DHT22;26336;44.696;10.622;2022-07-23T05:03:33;27.00;64.50
40638;DHT22;26336;44.696;10.622;2022-07-23T05:06:40;27.10;64.70
40638;DHT22;26336;44.696;10.622;2022-07-23T05:09:44;26.80;66.00
40638;DHT22;26336;44.696;10.622;2022-07-23T05:12:48;26.90;66.10
40638;DHT22;26336;44.696;10.622;2022-07-23T05:15:52;27.00;65.50
40638;DHT22;26336;44.696;10.622;2022-07-23T05:18:56;27.10;65.70
40638;DHT22;26336;44.696;10.622;2022-07-23T05:22:00;27.00;66.70
40638;DHT22;26336;44.696;10.622;2022-07-23T05:25:06;27.00;67.00
40638;DHT22;26336;44.696;10.622;2022-07-23T05:28:10;27.10;67.30
40638;DHT22;26336;44.696;10.622;2022-07-23T05:31:15;27.10;66.90
40638;DHT22;26336;44.696;10.622;2022-07-23T05:34:18;27.20;66.40
40638;DHT22;26336;44.696;10.622;2022-07-23T05:37:24;27.30;66.80
40638;DHT22;26336;44.696;10.622;2022-07-23T05:40:28;27.40;67.60
40638;DHT22;26336;44.696;10.622;2022-07-23T05:43:33;27.50;66.90
40638;DHT22;26336;44.696;10.622;2022-07-23T05:46:42;27.50;67.30
40638;DHT22;26336;44.696;10.622;2022-07-23T05:49:51;27.50;68.10
40638;DHT22;26336;44.696;10.622;2022-07-23T05:53:06;27.60;69.70
40638;DHT22;26336;44.696;10.622;2022-07-23T05:56:29;27.60;71.60
40638;DHT22;26336;44.696;10.622;2022-07-23T05:59:33;27.60;72.10
40638;DHT22;26336;44.696;10.622;2022-07-23T06:02:38;27.60;72.40
40638;DHT22;26336;44.696;10.622;2022-07-23T06:05:42;27.70;71.70
40638;DHT22;26336;44.696;10.622;2022-07-23T06:08:46;27.70;71.60
40638;DHT22;26336;44.696;10.622;2022-07-23T06:11:51;27.70;71.70
40638;DHT22;26336;44.696;10.622;2022-07-23T06:14:55;27.70;71.60
40638;DHT22;26336;44.696;10.622;2022-07-23T06:17:59;27.80;71.30
40638;DHT22;26336;44.696;10.622;2022-07-23T06:21:03;27.80;71.70
40638;DHT22;26336;44.696;10.622;2022-07-23T06:24:14;27.90;71.10
40638;DHT22;26336;44.696;10.622;2022-07-23T06:27:18;27.90;70.90
40638;DHT22;26336;44.696;10.622;2022-07-23T06:30:23;28.00;70.90
40638;DHT22;26336;44.696;10.622;2022-07-23T06:33:27;28.00;70.30
40638;DHT22;26336;44.696;10.622;2022-07-23T06:36:31;28.00;70.00
40638;DHT22;26336;44.696;10.622;2022-07-23T06:39:35;28.10;70.10
40638;DHT22;26336;44.696;10.622;2022-07-23T06:42:42;28.10;69.80
40638;DHT22;26336;44.696;10.622;2022-07-23T06:45:53;28.10;69.50
40638;DHT22;26336;44.696;10.622;2022-07-23T06:48:57;28.10;68.50
40638;DHT22;26336;44.696;10.622;2022-07-23T06:52:01;28.20;68.60
40638;DHT22;26336;44.696;10.622;2022-07-23T06:55:05;28.20;67.40
40638;DHT22;26336;44.696;10.622;2022-07-23T06:58:09;28.20;67.60
40638;DHT22;26336;44.696;10.622;2022-07-23T07:01:14;28.30;67.40
40638;DHT22;26336;44.696;10.622;2022-07-23T07:04:19;28.40;67.10
40638;DHT22;26336;44.696;10.622;2022-07-23T07:07:23;28.40;66.30
40638;DHT22;26336;44.696;10.622;2022-07-23T07:10:27;28.40;65.80
40638;DHT22;26336;44.696;10.622;2022-07-23T07:13:31;28.50;66.30
40638;DHT22;26336;44.696;10.622;2022-07-23T07:16:35;28.50;66.90
40638;DHT22;26336;44.696;10.622;2022-07-23T07:19:39;28.60;66.60
40638;DHT22;26336;44.696;10.622;2022-07-23T07:22:44;28.70;67.60
40638;DHT22;26336;44.696;10.622;2022-07-23T07:25:48;28.80;65.80
40638;DHT22;26336;44.696;10.622;2022-07-23T07:28:55;28.80;64.80
40638;DHT22;26336;44.696;10.622;2022-07-23T07:31:59;28.90;62.80
40638;DHT22;26336;44.696;10.622;2022-07-23T07:35:04;28.90;63.20
40638;DHT22;26336;44.696;10.622;2022-07-23T07:38:09;28.90;63.20
40638;DHT22;26336;44.696;10.622;2022-07-23T07:41:14;29.00;62.80
40638;DHT22;26336;44.696;10.622;2022-07-23T07:44:18;29.10;62.50
40638;DHT22;26336;44.696;10.622;2022-07-23T07:47:21;29.10;62.60
40638;DHT22;26336;44.696;10.622;2022-07-23T07:50:26;29.20;65.10
40638;DHT22;26336;44.696;10.622;2022-07-23T07:53:30;29.20;63.00
40638;DHT22;26336;44.696;10.622;2022-07-23T07:56:34;29.30;63.00
40638;DHT22;26336;44.696;10.622;2022-07-23T07:59:38;29.40;62.90
40638;DHT22;26336;44.696;10.622;2022-07-23T08:02:43;29.40;61.20
40638;DHT22;26336;44.696;10.622;2022-07-23T08:05:48;29.40;62.00
40638;DHT22;26336;44.696;10.622;2022-07-23T08:08:52;29.50;63.70
40638;DHT22;26336;44.696;10.622;2022-07-23T08:11:56;29.50;62.20
40638;DHT22;26336;44.696;10.622;2022-07-23T08:15:00;29.60;61.90
40638;DHT22;26336;44.696;10.622;2022-07-23T08:18:04;29.60;61.90
40638;DHT22;26336;44.696;10.622;2022-07-23T08:21:11;29.70;62.40
40638;DHT22;26336;44.696;10.622;2022-07-23T08:24:15;29.70;61.90
40638;DHT22;26336;44.696;10.622;2022-07-23T08:27:20;29.80;61.10
40638;DHT22;26336;44.696;10.622;2022-07-23T08:30:24;29.90;60.10
40638;DHT22;26336;44.696;10.622;2022-07-23T08:33:28;29.90;60.80
40638;DHT22;26336;44.696;10.622;2022-07-23T08:36:35;30.00;60.80
40638;DHT22;26336;44.696;10.622;2022-07-23T08:39:39;30.00;61.00
40638;DHT22;26336;44.696;10.622;2022-07-23T08:42:45;30.10;61.60
40638;DHT22;26336;44.696;10.622;2022-07-23T08:45:52;30.10;60.80
40638;DHT22;26336;44.696;10.622;2022-07-23T08:48:58;30.10;61.60
40638;DHT22;26336;44.696;10.622;2022-07-23T08:52:02;30.20;60.90
40638;DHT22;26336;44.696;10.622;2022-07-23T08:55:08;30.20;62.80
40638;DHT22;26336;44.696;10.622;2022-07-23T08:58:16;30.30;62.50
40638;DHT22;26336;44.696;10.622;2022-07-23T09:01:20;30.40;63.20
40638;DHT22;26336;44.696;10.622;2022-07-23T09:04:24;30.40;63.50
40638;DHT22;26336;44.696;10.622;2022-07-23T09:07:28;30.40;63.60
40638;DHT22;26336;44.696;10.622;2022-07-23T09:10:54;30.50;63.70
40638;DHT22;26336;44.696;10.622;2022-07-23T09:14:06;30.60;64.00
40638;DHT22;26336;44.696;10.622;2022-07-23T09:17:40;30.70;64.00
40638;DHT22;26336;44.696;10.622;2022-07-23T09:20:46;30.70;63.80
40638;DHT22;26336;44.696;10.622;2022-07-23T09:24:16;30.80;64.10
40638;DHT22;26336;44.696;10.622;2022-07-23T09:30:51;30.90;63.70
40638;DHT22;26336;44.696;10.622;2022-07-23T09:34:11;31.00;63.30
40638;DHT22;26336;44.696;10.622;2022-07-23T09:37:18;31.10;63.90
40638;DHT22;26336;44.696;10.622;2022-07-23T09:40:23;31.20;63.40
40638;DHT22;26336;44.696;10.622;2022-07-23T09:43:27;31.30;63.50
40638;DHT22;26336;44.696;10.622;2022-07-23T09:46:35;31.30;63.40
40638;DHT22;26336;44.696;10.622;2022-07-23T09:50:02;31.40;63.70
40638;DHT22;26336;44.696;10.622;2022-07-23T09:53:23;31.50;63.80
40638;DHT22;26336;44.696;10.622;2022-07-23T09:56:28;31.60;64.00
40638;DHT22;26336;44.696;10.622;2022-07-23T09:59:36;31.60;64.30
40638;DHT22;26336;44.696;10.622;2022-07-23T10:02:41;31.60;64.40
40638;DHT22;26336;44.696;10.622;2022-07-23T10:06:10;31.70;64.00
40638;DHT22;26336;44.696;10.622;2022-07-23T10:09:39;31.80;63.20
40638;DHT22;26336;44.696;10.622;2022-07-23T10:13:06;31.90;61.80
40638;DHT22;26336;44.696;10.622;2022-07-23T10:16:17;32.00;62.80
40638;DHT22;26336;44.696;10.622;2022-07-23T10:19:24;32.10;63.40
40638;DHT22;26336;44.696;10.622;2022-07-23T10:29:52;32.20;63.50
40638;DHT22;26336;44.696;10.622;2022-07-23T10:33:24;32.40;63.10
40638;DHT22;26336;44.696;10.622;2022-07-23T10:36:50;32.50;62.60
40638;DHT22;26336;44.696;10.622;2022-07-23T10:43:25;32.80;61.90
40638;DHT22;26336;44.696;10.622;2022-07-23T10:47:00;32.70;61.60
40638;DHT22;26336;44.696;10.622;2022-07-23T10:50:26;32.70;61.10
40638;DHT22;26336;44.696;10.622;2022-07-23T10:53:52;32.70;61.10
40638;DHT22;26336;44.696;10.622;2022-07-23T10:57:27;32.80;61.30
40638;DHT22;26336;44.696;10.622;2022-07-23T11:00:38;32.90;61.00
40638;DHT22;26336;44.696;10.622;2022-07-23T11:03:56;33.00;61.00
40638;DHT22;26336;44.696;10.622;2022-07-23T11:07:09;33.10;60.40
40638;DHT22;26336;44.696;10.622;2022-07-23T11:10:36;33.20;61.40
40638;DHT22;26336;44.696;10.622;2022-07-23T11:14:02;33.20;60.30
40638;DHT22;26336;44.696;10.622;2022-07-23T11:17:19;33.40;59.60
40638;DHT22;26336;44.696;10.622;2022-07-23T11:20:27;33.80;59.50
40638;DHT22;26336;44.696;10.622;2022-07-23T11:24:11;33.70;59.40
40638;DHT22;26336;44.696;10.622;2022-07-23T11:27:39;33.70;59.60
40638;DHT22;26336;44.696;10.622;2022-07-23T11:30:47;33.70;60.10
40638;DHT22;26336;44.696;10.622;2022-07-23T11:34:27;33.70;60.40
40638;DHT22;26336;44.696;10.622;2022-07-23T11:37:38;33.60;60.10
40638;DHT22;26336;44.696;10.622;2022-07-23T11:40:50;33.50;60.80
40638;DHT22;26336;44.696;10.622;2022-07-23T11:43:55;33.40;60.40
40638;DHT22;26336;44.696;10.622;2022-07-23T11:47:00;33.40;60.40
40638;DHT22;26336;44.696;10.622;2022-07-23T11:50:07;33.40;59.40
40638;DHT22;26336;44.696;10.622;2022-07-23T11:53:12;33.40;59.10
40638;DHT22;26336;44.696;10.622;2022-07-23T11:56:16;33.50;60.30
40638;DHT22;26336;44.696;10.622;2022-07-23T11:59:21;33.40;59.50
40638;DHT22;26336;44.696;10.622;2022-07-23T12:02:25;33.40;59.50
40638;DHT22;26336;44.696;10.622;2022-07-23T12:05:35;33.40;59.90
40638;DHT22;26336;44.696;10.622;2022-07-23T12:08:42;33.40;59.90
40638;DHT22;26336;44.696;10.622;2022-07-23T12:12:00;33.30;60.70
40638;DHT22;26336;44.696;10.622;2022-07-23T12:15:05;33.20;60.00
40638;DHT22;26336;44.696;10.622;2022-07-23T12:18:11;33.20;60.00
40638;DHT22;26336;44.696;10.622;2022-07-23T12:21:16;33.30;59.80
40638;DHT22;26336;44.696;10.622;2022-07-23T12:24:20;33.60;59.50
40638;DHT22;26336;44.696;10.622;2022-07-23T12:27:25;33.70;59.70
40638;DHT22;26336;44.696;10.622;2022-07-23T12:30:33;33.80;59.60
40638;DHT22;26336;44.696;10.622;2022-07-23T12:33:39;33.70;59.90
40638;DHT22;26336;44.696;10.622;2022-07-23T12:36:44;33.90;59.10
40638;DHT22;26336;44.696;10.622;2022-07-23T12:39:47;33.70;59.10
40638;DHT22;26336;44.696;10.622;2022-07-23T12:43:29;33.90;59.20
40638;DHT22;26336;44.696;10.622;2022-07-23T12:46:36;34.10;59.30
40638;DHT22;26336;44.696;10.622;2022-07-23T12:49:40;34.20;59.40
40638;DHT22;26336;44.696;10.622;2022-07-23T12:52:44;34.10;59.60
40638;DHT22;26336;44.696;10.622;2022-07-23T12:56:15;34.00;59.70
40638;DHT22;26336;44.696;10.622;2022-07-23T12:59:19;33.70;59.90
40638;DHT22;26336;44.696;10.622;2022-07-23T13:02:26;33.60;60.30
40638;DHT22;26336;44.696;10.622;2022-07-23T13:05:30;33.60;59.10
40638;DHT22;26336;44.696;10.622;2022-07-23T13:08:36;33.80;59.50
40638;DHT22;26336;44.696;10.622;2022-07-23T13:11:42;33.90;58.90
40638;DHT22;26336;44.696;10.622;2022-07-23T13:14:47;33.90;59.40
40638;DHT22;26336;44.696;10.622;2022-07-23T13:17:51;33.80;59.30
40638;DHT22;26336;44.696;10.622;2022-07-23T13:20:55;33.70;59.20
40638;DHT22;26336;44.696;10.622;2022-07-23T13:24:00;34.10;59.00
40638;DHT22;26336;44.696;10.622;2022-07-23T13:27:07;34.40;58.70
40638;DHT22;26336;44.696;10.622;2022-07-23T13:30:11;34.40;58.20
40638;DHT22;26336;44.696;10.622;2022-07-23T13:33:24;34.60;58.40
40638;DHT22;26336;44.696;10.622;2022-07-23T13:36:28;34.70;58.10
40638;DHT22;26336;44.696;10.622;2022-07-23T13:39:33;34.80;58.30
40638;DHT22;26336;44.696;10.622;2022-07-23T13:42:40;34.60;58.40
40638;DHT22;26336;44.696;10.622;2022-07-23T13:45:45;34.40;58.50
40638;DHT22;26336;44.696;10.622;2022-07-23T13:48:50;34.30;58.50
40638;DHT22;26336;44.696;10.622;2022-07-23T13:51:54;34.20;58.90
40638;DHT22;26336;44.696;10.622;2022-07-23T13:55:05;34.30;58.80
40638;DHT22;26336;44.696;10.622;2022-07-23T13:58:10;34.40;58.40
40638;DHT22;26336;44.696;10.622;2022-07-23T14:01:15;34.50;58.40
40638;DHT22;26336;44.696;10.622;2022-07-23T14:04:19;34.60;58.30
40638;DHT22;26336;44.696;10.622;2022-07-23T14:07:24;34.70;58.40
40638;DHT22;26336;44.696;10.622;2022-07-23T14:10:28;34.60;58.30
40638;DHT22;26336;44.696;10.622;2022-07-23T14:13:32;34.60;58.80
40638;DHT22;26336;44.696;10.622;2022-07-23T14:16:37;34.70;58.90
40638;DHT22;26336;44.696;10.622;2022-07-23T14:19:41;34.80;58.30
40638;DHT22;26336;44.696;10.622;2022-07-23T14:22:45;34.80;58.50
40638;DHT22;26336;44.696;10.622;2022-07-23T14:25:50;34.80;57.90
40638;DHT22;26336;44.696;10.622;2022-07-23T14:28:54;34.80;57.80
40638;DHT22;26336;44.696;10.622;2022-07-23T14:31:59;34.80;58.70
40638;DHT22;26336;44.696;10.622;2022-07-23T14:35:04;34.50;58.70
40638;DHT22;26336;44.696;10.622;2022-07-23T14:38:08;34.30;59.00
40638;DHT22;26336;44.696;10.622;2022-07-23T14:41:13;34.30;58.80
40638;DHT22;26336;44.696;10.622;2022-07-23T14:44:17;34.40;58.50
40638;DHT22;26336;44.696;10.622;2022-07-23T14:47:21;34.40;58.70
40638;DHT22;26336;44.696;10.622;2022-07-23T14:50:25;34.30;59.30
40638;DHT22;26336;44.696;10.622;2022-07-23T14:53:29;34.20;58.90
40638;DHT22;26336;44.696;10.622;2022-07-23T14:56:37;34.30;59.20
40638;DHT22;26336;44.696;10.622;2022-07-23T14:59:41;34.40;59.30
40638;DHT22;26336;44.696;10.622;2022-07-23T15:02:50;34.50;59.00
40638;DHT22;26336;44.696;10.622;2022-07-23T15:05:54;34.50;59.30
40638;DHT22;26336;44.696;10.622;2022-07-23T15:08:58;34.40;59.40
40638;DHT22;26336;44.696;10.622;2022-07-23T15:12:04;34.40;59.50
40638;DHT22;26336;44.696;10.622;2022-07-23T15:15:09;34.40;59.40
40638;DHT22;26336;44.696;10.622;2022-07-23T15:18:13;34.50;59.60
40638;DHT22;26336;44.696;10.622;2022-07-23T15:21:24;34.60;59.20
40638;DHT22;26336;44.696;10.622;2022-07-23T15:24:29;34.70;59.40
40638;DHT22;26336;44.696;10.622;2022-07-23T15:27:33;34.80;58.70
40638;DHT22;26336;44.696;10.622;2022-07-23T15:30:37;34.80;58.60
40638;DHT22;26336;44.696;10.622;2022-07-23T15:33:42;34.80;59.00
40638;DHT22;26336;44.696;10.622;2022-07-23T15:36:46;34.60;59.50
40638;DHT22;26336;44.696;10.622;2022-07-23T15:39:50;34.50;59.70
40638;DHT22;26336;44.696;10.622;2022-07-23T15:42:54;34.40;60.10
40638;DHT22;26336;44.696;10.622;2022-07-23T15:45:57;34.40;60.10
40638;DHT22;26336;44.696;10.622;2022-07-23T15:49:01;34.30;60.20
40638;DHT22;26336;44.696;10.622;2022-07-23T15:52:06;34.20;59.80
40638;DHT22;26336;44.696;10.622;2022-07-23T15:55:10;34.20;59.90
40638;DHT22;26336;44.696;10.622;2022-07-23T15:58:14;34.20;59.80
40638;DHT22;26336;44.696;10.622;2022-07-23T16:01:18;34.10;59.90
40638;DHT22;26336;44.696;10.622;2022-07-23T16:04:24;34.10;60.00
40638;DHT22;26336;44.696;10.622;2022-07-23T16:07:28;34.00;60.20
40638;DHT22;26336;44.696;10.622;2022-07-23T16:10:32;33.90;60.40
40638;DHT22;26336;44.696;10.622;2022-07-23T16:13:36;33.90;60.60
40638;DHT22;26336;44.696;10.622;2022-07-23T16:16:41;34.00;60.30
40638;DHT22;26336;44.696;10.622;2022-07-23T16:19:46;34.00;60.10
40638;DHT22;26336;44.696;10.622;2022-07-23T16:22:51;34.00;60.30
40638;DHT22;26336;44.696;10.622;2022-07-23T16:25:55;34.00;59.80
40638;DHT22;26336;44.696;10.622;2022-07-23T16:28:59;34.10;57.30
40638;DHT22;26336;44.696;10.622;2022-07-23T16:32:04;34.00;53.40
40638;DHT22;26336;44.696;10.622;2022-07-23T16:35:08;34.00;53.90
40638;DHT22;26336;44.696;10.622;2022-07-23T16:38:12;34.00;55.70
40638;DHT22;26336;44.696;10.622;2022-07-23T16:41:17;34.00;54.80
40638;DHT22;26336;44.696;10.622;2022-07-23T16:44:23;34.00;54.50
40638;DHT22;26336;44.696;10.622;2022-07-23T16:47:27;34.00;52.90
40638;DHT22;26336;44.696;10.622;2022-07-23T16:50:31;34.00;53.00
40638;DHT22;26336;44.696;10.622;2022-07-23T16:53:36;34.00;51.50
40638;DHT22;26336;44.696;10.622;2022-07-23T16:56:41;33.90;54.30
40638;DHT22;26336;44.696;10.622;2022-07-23T16:59:45;33.90;50.70
40638;DHT22;26336;44.696;10.622;2022-07-23T17:02:51;33.90;50.50
40638;DHT22;26336;44.696;10.622;2022-07-23T17:05:56;33.90;50.60
40638;DHT22;26336;44.696;10.622;2022-07-23T17:09:02;33.90;52.30
40638;DHT22;26336;44.696;10.622;2022-07-23T17:12:06;33.80;53.50
40638;DHT22;26336;44.696;10.622;2022-07-23T17:15:10;33.70;53.60
40638;DHT22;26336;44.696;10.622;2022-07-23T17:18:14;33.60;53.10
40638;DHT22;26336;44.696;10.622;2022-07-23T17:21:18;33.60;53.10
40638;DHT22;26336;44.696;10.622;2022-07-23T17:24:23;33.60;52.50
40638;DHT22;26336;44.696;10.622;2022-07-23T17:27:28;33.60;54.30
40638;DHT22;26336;44.696;10.622;2022-07-23T17:30:32;33.50;52.90
40638;DHT22;26336;44.696;10.622;2022-07-23T17:33:42;33.50;53.80
40638;DHT22;26336;44.696;10.622;2022-07-23T17:36:50;33.50;54.30
40638;DHT22;26336;44.696;10.622;2022-07-23T17:39:55;33.50;54.40
40638;DHT22;26336;44.696;10.622;2022-07-23T17:43:02;33.40;54.30
40638;DHT22;26336;44.696;10.622;2022-07-23T17:46:06;33.40;54.40
40638;DHT22;26336;44.696;10.622;2022-07-23T17:49:10;33.30;54.00
40638;DHT22;26336;44.696;10.622;2022-07-23T17:52:15;33.30;54.30
40638;DHT22;26336;44.696;10.622;2022-07-23T17:55:20;33.30;53.40
40638;DHT22;26336;44.696;10.622;2022-07-23T17:58:27;33.20;53.40
40638;DHT22;26336;44.696;10.622;2022-07-23T18:01:31;33.20;54.00
40638;DHT22;26336;44.696;10.622;2022-07-23T18:04:36;33.20;54.80
40638;DHT22;26336;44.696;10.622;2022-07-23T18:07:43;33.10;54.00
40638;DHT22;26336;44.696;10.622;2022-07-23T18:10:48;33.10;54.80
40638;DHT22;26336;44.696;10.622;2022-07-23T18:13:52;33.00;54.00
40638;DHT22;26336;44.696;10.622;2022-07-23T18:16:56;33.00;55.50
40638;DHT22;26336;44.696;10.622;2022-07-23T18:20:02;33.00;55.30
40638;DHT22;26336;44.696;10.622;2022-07-23T18:23:07;32.90;55.90
40638;DHT22;26336;44.696;10.622;2022-07-23T18:26:11;32.80;56.10
40638;DHT22;26336;44.696;10.622;2022-07-23T18:29:15;32.80;56.50
40638;DHT22;26336;44.696;10.622;2022-07-23T18:32:19;32.70;56.70
40638;DHT22;26336;44.696;10.622;2022-07-23T18:35:33;32.70;57.30
40638;DHT22;26336;44.696;10.622;2022-07-23T18:38:45;32.70;57.30
40638;DHT22;26336;44.696;10.622;2022-07-23T18:41:49;32.60;57.80
40638;DHT22;26336;44.696;10.622;2022-07-23T18:44:56;32.60;57.40
40638;DHT22;26336;44.696;10.622;2022-07-23T18:48:27;32.50;57.20
40638;DHT22;26336;44.696;10.622;2022-07-23T18:51:42;32.50;57.30
40638;DHT22;26336;44.696;10.622;2022-07-23T18:54:47;32.50;56.60
40638;DHT22;26336;44.696;10.622;2022-07-23T18:58:28;32.50;56.50
40638;DHT22;26336;44.696;10.622;2022-07-23T19:01:51;32.50;56.10
40638;DHT22;26336;44.696;10.622;2022-07-23T19:05:30;32.50;56.80
40638;DHT22;26336;44.696;10.622;2022-07-23T19:08:34;32.50;56.30
40638;DHT22;26336;44.696;10.622;2022-07-23T19:11:38;32.50;55.90
40638;DHT22;26336;44.696;10.622;2022-07-23T19:14:42;32.40;55.90
40638;DHT22;26336;44.696;10.622;2022-07-23T19:17:46;32.40;55.70
40638;DHT22;26336;44.696;10.622;2022-07-23T19:20:58;32.30;56.20
40638;DHT22;26336;44.696;10.622;2022-07-23T19:24:06;32.30;56.20
40638;DHT22;26336;44.696;10.622;2022-07-23T19:27:11;32.30;56.20
40638;DHT22;26336;44.696;10.622;2022-07-23T19:30:15;32.30;56.10
40638;DHT22;26336;44.696;10.622;2022-07-23T19:33:19;32.30;55.50
40638;DHT22;26336;44.696;10.622;2022-07-23T19:36:23;32.30;55.10